Moonglow — WDH6989 — position and weather

sailwx.info

Track history (hours):
 
Tides and Currents Weather Stations Pressure Air Temp Water Temp Dewpoint Dewpoint Depression Visibility Wind Speed Wind Dir Waves Ship Positions

Moonglow

Owner: Mann, David B, Richmond, VA. More information available from US FCC via Universal Licensing System and Coast Guard Vessel Documentation Center.

Last reported at 2017-Dec-14 10:03 UTC. Time now 2017-Dec-16 12:56 UTC.
Position N 26°45' W 079°54'.

Length 16 m.

Type: Sailing vessel. MMSI: 367643630.

Date/timePositionNaut miles runAvg speedWind from/ knotsBaromVisibWave heightAir tempDewpointWater temp
2017-Dec-14 10:03N 26°45' W 079°54'0 5.4
2017-Dec-14 09:58N 26°45' W 079°55'2 4.5
2017-Dec-14 09:30N 26°45' W 079°57'2 4.8
2017-Dec-14 09:00N 26°46' W 079°60'3 5.1
2017-Dec-14 08:30N 26°46' W 080°03'0 0.0
2017-Dec-12 21:48N 26°46' W 080°03'0 0.1
2017-Dec-12 21:30N 26°46' W 080°03'0 0.0
2017-Dec-10 19:51N 26°46' W 080°03'0 0.5
2017-Dec-10 19:30N 26°46' W 080°03'2 4.6
2017-Dec-10 19:00N 26°44' W 080°03'2 4.6
2017-Dec-10 18:30N 26°46' W 080°03'3 5.5
2017-Dec-10 17:59N 26°49' W 080°03'7 0.3
2017-Dec-09 21:39N 26°56' W 080°05'1 4.5
2017-Dec-09 21:30N 26°56' W 080°05'  
Track history (hours):
 
Tides and Currents Weather Stations Pressure Air Temp Water Temp Dewpoint Dewpoint Depression Visibility Wind Speed Wind Dir Waves Ship Positions

Moonglow

Owner: Mann, David B, Richmond, VA. More information available from US FCC via Universal Licensing System and Coast Guard Vessel Documentation Center.

Last reported at 2017-Dec-14 10:03 UTC. Time now 2017-Dec-16 12:56 UTC.
Position N 26°45' W 079°54'.

Length 16 m.

Type: Sailing vessel. MMSI: 367643630.

Date/timePositionNaut miles runAvg speedWind from/ knotsBaromVisibWave heightAir tempDewpointWater temp
2017-Dec-14 10:03N 26°45' W 079°54'0 5.4
2017-Dec-14 09:58N 26°45' W 079°55'2 4.5
2017-Dec-14 09:30N 26°45' W 079°57'2 4.8
2017-Dec-14 09:00N 26°46' W 079°60'3 5.1
2017-Dec-14 08:30N 26°46' W 080°03'0 0.0
2017-Dec-12 21:48N 26°46' W 080°03'0 0.1
2017-Dec-12 21:30N 26°46' W 080°03'0 0.0
2017-Dec-10 19:51N 26°46' W 080°03'0 0.5
2017-Dec-10 19:30N 26°46' W 080°03'2 4.6
2017-Dec-10 19:00N 26°44' W 080°03'2 4.6
2017-Dec-10 18:30N 26°46' W 080°03'3 5.5
2017-Dec-10 17:59N 26°49' W 080°03'7 0.3
2017-Dec-09 21:39N 26°56' W 080°05'1 4.5
2017-Dec-09 21:30N 26°56' W 080°05'  

Dump ship's entire track history